Linz, Austria
Current Conditions -  °F | °C
As of 8:20 AM on Wednesday 28 Jan 2015 (Local Time) from LOWL Reporting Station
Broken Clouds Broken Clouds  
Wind Chill: 28°   Ceiling: 2400
Heat Index: 34°   Visibility: 6mi
Dew Point: 30°   Wind: 7mph
Humidity: 87%   Direction: 240°WSW
Pressure: 30.09"   Gusts: NA
Location:  48.31°N, 14.29°E
Report Text: LOWL 280620Z 24006KT 9999 FEW013 SCT016 BKN024 01/M01 Q1019 R08/19//95 NOSIG
Loading
Personal Weather Stations






























Interactive Weather Map New forecast layout! Learn more

10-Day Weather Forecast

Advertisements
Track Severe Weather on mobile